Ferdinand, Idaho
Current Conditions -  °F | °C
As of 5:15 PM on Wednesday 22 Oct 2014 (Local Time) from KGIC Reporting Station
Clear Clear  
Wind Chill: 59°   Ceiling: Unl
Heat Index: 59°   Visibility: 10mi
Dew Point: 31°   Wind: 5mph
Humidity: 35%   Direction: 190°S
Pressure: 29.93"   Gusts: NA
Location:  46.15°N, 116.39°W
Report Text: KGIC 230015Z AUTO 19004KT 10SM CLR 15/00 A2993 RMK AO1 T01511004
Loading
Personal Weather Stations






























Interactive Weather Map New forecast layout! Learn more

10-Day Weather Forecast

Advertisements
Track Severe Weather on mobile